sensor_id;sensor_type;location;lat;lon;timestamp;temperature;humidity
44223;DHT22;29895;48.804;9.386;2022-08-01T01:32:07;17.60;99.90
44223;DHT22;29895;48.804;9.386;2022-08-01T01:34:37;17.50;99.90
44223;DHT22;29895;48.804;9.386;2022-08-01T01:37:02;17.50;99.90
44223;DHT22;29895;48.804;9.386;2022-08-01T01:39:30;17.50;99.90
44223;DHT22;29895;48.804;9.386;2022-08-01T01:41:56;17.40;99.90
44223;DHT22;29895;48.804;9.386;2022-08-01T01:44:23;17.40;99.90
44223;DHT22;29895;48.804;9.386;2022-08-01T01:46:48;17.40;99.90
44223;DHT22;29895;48.804;9.386;2022-08-01T01:49:15;17.50;99.90
44223;DHT22;29895;48.804;9.386;2022-08-01T01:51:41;17.40;99.90
44223;DHT22;29895;48.804;9.386;2022-08-01T01:54:07;17.40;99.90
44223;DHT22;29895;48.804;9.386;2022-08-01T01:56:34;17.40;99.90
44223;DHT22;29895;48.804;9.386;2022-08-01T01:59:01;17.30;99.90
44223;DHT22;29895;48.804;9.386;2022-08-01T02:01:28;17.30;99.90
44223;DHT22;29895;48.804;9.386;2022-08-01T02:03:54;17.30;99.90
44223;DHT22;29895;48.804;9.386;2022-08-01T02:06:20;17.30;99.90
44223;DHT22;29895;48.804;9.386;2022-08-01T02:08:47;17.30;99.90
44223;DHT22;29895;48.804;9.386;2022-08-01T02:11:14;17.20;99.90
44223;DHT22;29895;48.804;9.386;2022-08-01T02:13:59;17.30;99.90
44223;DHT22;29895;48.804;9.386;2022-08-01T02:16:26;17.30;99.90
44223;DHT22;29895;48.804;9.386;2022-08-01T02:18:53;17.30;99.90
44223;DHT22;29895;48.804;9.386;2022-08-01T02:21:23;17.20;99.90
44223;DHT22;29895;48.804;9.386;2022-08-01T02:23:53;17.20;99.90
44223;DHT22;29895;48.804;9.386;2022-08-01T02:26:20;17.20;99.90
44223;DHT22;29895;48.804;9.386;2022-08-01T02:28:56;17.20;99.90
44223;DHT22;29895;48.804;9.386;2022-08-01T02:31:22;17.20;99.90
44223;DHT22;29895;48.804;9.386;2022-08-01T02:33:54;17.10;99.90
44223;DHT22;29895;48.804;9.386;2022-08-01T02:36:21;17.10;99.90
44223;DHT22;29895;48.804;9.386;2022-08-01T02:38:48;17.10;99.90
44223;DHT22;29895;48.804;9.386;2022-08-01T02:41:17;17.10;99.90
44223;DHT22;29895;48.804;9.386;2022-08-01T02:43:50;17.10;99.90
44223;DHT22;29895;48.804;9.386;2022-08-01T02:46:21;17.10;99.90
44223;DHT22;29895;48.804;9.386;2022-08-01T02:48:47;17.10;99.90
44223;DHT22;29895;48.804;9.386;2022-08-01T02:51:15;17.10;99.90
44223;DHT22;29895;48.804;9.386;2022-08-01T02:53:41;17.10;99.90
44223;DHT22;29895;48.804;9.386;2022-08-01T02:56:08;17.10;99.90
44223;DHT22;29895;48.804;9.386;2022-08-01T02:58:34;17.00;99.90
44223;DHT22;29895;48.804;9.386;2022-08-01T03:01:00;17.10;99.90
44223;DHT22;29895;48.804;9.386;2022-08-01T03:03:26;17.00;99.90
44223;DHT22;29895;48.804;9.386;2022-08-01T03:05:52;17.00;99.90
44223;DHT22;29895;48.804;9.386;2022-08-01T03:08:18;17.00;99.90
44223;DHT22;29895;48.804;9.386;2022-08-01T03:10:44;16.90;99.90
44223;DHT22;29895;48.804;9.386;2022-08-01T03:13:10;16.90;99.90
44223;DHT22;29895;48.804;9.386;2022-08-01T03:15:37;16.90;99.90
44223;DHT22;29895;48.804;9.386;2022-08-01T03:18:04;16.90;99.90
44223;DHT22;29895;48.804;9.386;2022-08-01T03:20:31;16.90;99.90
44223;DHT22;29895;48.804;9.386;2022-08-01T03:23:04;16.90;99.90
44223;DHT22;29895;48.804;9.386;2022-08-01T03:25:30;16.80;99.90
44223;DHT22;29895;48.804;9.386;2022-08-01T03:27:58;16.80;99.90
44223;DHT22;29895;48.804;9.386;2022-08-01T03:30:25;16.80;99.90
44223;DHT22;29895;48.804;9.386;2022-08-01T03:32:51;16.80;99.90
44223;DHT22;29895;48.804;9.386;2022-08-01T03:35:19;16.70;99.90
44223;DHT22;29895;48.804;9.386;2022-08-01T03:37:45;16.70;99.90
44223;DHT22;29895;48.804;9.386;2022-08-01T03:40:55;16.70;99.90
44223;DHT22;29895;48.804;9.386;2022-08-01T03:43:02;16.70;99.90
44223;DHT22;29895;48.804;9.386;2022-08-01T03:45:30;16.70;99.90
44223;DHT22;29895;48.804;9.386;2022-08-01T03:47:59;16.70;99.90
44223;DHT22;29895;48.804;9.386;2022-08-01T03:50:25;16.60;99.90
44223;DHT22;29895;48.804;9.386;2022-08-01T03:52:51;16.60;99.90
44223;DHT22;29895;48.804;9.386;2022-08-01T03:55:18;16.60;99.90
44223;DHT22;29895;48.804;9.386;2022-08-01T03:57:45;16.60;99.90
44223;DHT22;29895;48.804;9.386;2022-08-01T04:00:12;16.60;99.90
44223;DHT22;29895;48.804;9.386;2022-08-01T04:02:38;16.50;99.90
44223;DHT22;29895;48.804;9.386;2022-08-01T04:05:04;16.50;99.90
44223;DHT22;29895;48.804;9.386;2022-08-01T04:07:31;16.40;99.90
44223;DHT22;29895;48.804;9.386;2022-08-01T04:09:56;16.40;99.90
44223;DHT22;29895;48.804;9.386;2022-08-01T04:12:22;16.40;99.90
44223;DHT22;29895;48.804;9.386;2022-08-01T04:14:48;16.40;99.90
44223;DHT22;29895;48.804;9.386;2022-08-01T04:17:15;16.30;99.90
44223;DHT22;29895;48.804;9.386;2022-08-01T04:19:41;16.40;99.90
44223;DHT22;29895;48.804;9.386;2022-08-01T04:22:07;16.50;99.90
44223;DHT22;29895;48.804;9.386;2022-08-01T04:24:33;16.50;99.90
44223;DHT22;29895;48.804;9.386;2022-08-01T04:27:00;16.50;99.90
44223;DHT22;29895;48.804;9.386;2022-08-01T04:29:27;16.60;99.90
44223;DHT22;29895;48.804;9.386;2022-08-01T04:31:53;16.60;99.90
44223;DHT22;29895;48.804;9.386;2022-08-01T04:34:20;16.70;99.90
44223;DHT22;29895;48.804;9.386;2022-08-01T04:36:47;16.70;99.90
44223;DHT22;29895;48.804;9.386;2022-08-01T04:39:13;16.80;99.90
44223;DHT22;29895;48.804;9.386;2022-08-01T04:41:40;17.00;99.90
44223;DHT22;29895;48.804;9.386;2022-08-01T04:44:06;17.50;99.90
44223;DHT22;29895;48.804;9.386;2022-08-01T04:46:34;17.80;99.90
44223;DHT22;29895;48.804;9.386;2022-08-01T04:49:02;18.10;99.90
44223;DHT22;29895;48.804;9.386;2022-08-01T04:51:28;18.40;99.90
44223;DHT22;29895;48.804;9.386;2022-08-01T04:53:54;18.90;99.90
44223;DHT22;29895;48.804;9.386;2022-08-01T04:56:19;19.20;99.90
44223;DHT22;29895;48.804;9.386;2022-08-01T04:58:45;19.60;99.90
44223;DHT22;29895;48.804;9.386;2022-08-01T05:01:11;19.90;99.90
44223;DHT22;29895;48.804;9.386;2022-08-01T05:03:37;20.30;99.90
44223;DHT22;29895;48.804;9.386;2022-08-01T05:06:02;20.50;99.90
44223;DHT22;29895;48.804;9.386;2022-08-01T05:08:28;20.70;99.90
44223;DHT22;29895;48.804;9.386;2022-08-01T05:10:53;20.90;99.90
44223;DHT22;29895;48.804;9.386;2022-08-01T05:13:19;21.10;99.90
44223;DHT22;29895;48.804;9.386;2022-08-01T05:15:44;21.40;99.90
44223;DHT22;29895;48.804;9.386;2022-08-01T05:18:10;21.60;99.90
44223;DHT22;29895;48.804;9.386;2022-08-01T05:20:36;21.50;99.90
44223;DHT22;29895;48.804;9.386;2022-08-01T05:23:02;21.50;99.90
44223;DHT22;29895;48.804;9.386;2022-08-01T05:25:28;21.50;99.90
44223;DHT22;29895;48.804;9.386;2022-08-01T05:27:53;21.40;99.90
44223;DHT22;29895;48.804;9.386;2022-08-01T05:30:19;21.60;99.90
44223;DHT22;29895;48.804;9.386;2022-08-01T05:32:44;21.70;99.90
44223;DHT22;29895;48.804;9.386;2022-08-01T05:35:10;21.90;99.90
44223;DHT22;29895;48.804;9.386;2022-08-01T05:37:35;22.20;99.90
44223;DHT22;29895;48.804;9.386;2022-08-01T05:40:01;22.60;99.90
44223;DHT22;29895;48.804;9.386;2022-08-01T05:42:26;22.80;99.90
44223;DHT22;29895;48.804;9.386;2022-08-01T05:44:52;23.20;99.90
44223;DHT22;29895;48.804;9.386;2022-08-01T05:47:18;23.40;99.90
44223;DHT22;29895;48.804;9.386;2022-08-01T16:10:35;28.60;91.60
44223;DHT22;29895;48.804;9.386;2022-08-01T16:13:00;28.50;91.70
44223;DHT22;29895;48.804;9.386;2022-08-01T16:15:26;28.30;91.70
44223;DHT22;29895;48.804;9.386;2022-08-01T16:17:53;28.30;91.60
44223;DHT22;29895;48.804;9.386;2022-08-01T16:20:18;28.30;91.70
44223;DHT22;29895;48.804;9.386;2022-08-01T16:22:44;28.40;91.90
44223;DHT22;29895;48.804;9.386;2022-08-01T16:25:09;28.40;91.80
44223;DHT22;29895;48.804;9.386;2022-08-01T16:27:35;28.30;91.80
44223;DHT22;29895;48.804;9.386;2022-08-01T16:30:02;28.20;91.70
44223;DHT22;29895;48.804;9.386;2022-08-01T16:32:29;28.20;91.80
44223;DHT22;29895;48.804;9.386;2022-08-01T16:34:55;28.10;91.80
44223;DHT22;29895;48.804;9.386;2022-08-01T16:37:21;28.10;92.10
44223;DHT22;29895;48.804;9.386;2022-08-01T16:39:46;28.20;91.90
44223;DHT22;29895;48.804;9.386;2022-08-01T16:42:12;28.30;91.90
44223;DHT22;29895;48.804;9.386;2022-08-01T16:44:37;28.20;91.70
44223;DHT22;29895;48.804;9.386;2022-08-01T16:47:04;28.10;91.90
44223;DHT22;29895;48.804;9.386;2022-08-01T16:49:29;28.10;91.70
44223;DHT22;29895;48.804;9.386;2022-08-01T16:51:56;28.00;92.00
44223;DHT22;29895;48.804;9.386;2022-08-01T16:54:21;27.70;92.10
44223;DHT22;29895;48.804;9.386;2022-08-01T16:56:47;27.70;92.30
44223;DHT22;29895;48.804;9.386;2022-08-01T16:59:12;27.50;92.40
44223;DHT22;29895;48.804;9.386;2022-08-01T17:01:38;27.50;92.40
44223;DHT22;29895;48.804;9.386;2022-08-01T17:04:04;27.40;92.30
44223;DHT22;29895;48.804;9.386;2022-08-01T17:06:30;27.30;92.50
44223;DHT22;29895;48.804;9.386;2022-08-01T17:08:56;27.30;92.70
44223;DHT22;29895;48.804;9.386;2022-08-01T17:11:21;27.40;92.60
44223;DHT22;29895;48.804;9.386;2022-08-01T17:13:47;27.40;92.60
44223;DHT22;29895;48.804;9.386;2022-08-01T17:16:13;27.40;92.50
44223;DHT22;29895;48.804;9.386;2022-08-01T17:18:39;27.40;92.60
44223;DHT22;29895;48.804;9.386;2022-08-01T17:21:05;27.50;92.60
44223;DHT22;29895;48.804;9.386;2022-08-01T17:23:30;27.50;92.70
44223;DHT22;29895;48.804;9.386;2022-08-01T17:25:56;27.40;92.70
44223;DHT22;29895;48.804;9.386;2022-08-01T17:28:22;27.40;92.70
44223;DHT22;29895;48.804;9.386;2022-08-01T17:30:49;27.50;93.60
44223;DHT22;29895;48.804;9.386;2022-08-01T17:33:14;27.30;94.80
44223;DHT22;29895;48.804;9.386;2022-08-01T17:35:40;26.90;95.60
44223;DHT22;29895;48.804;9.386;2022-08-01T17:38:05;26.20;96.20
44223;DHT22;29895;48.804;9.386;2022-08-01T17:40:31;25.90;96.50
44223;DHT22;29895;48.804;9.386;2022-08-01T17:42:56;25.80;96.50
44223;DHT22;29895;48.804;9.386;2022-08-01T17:45:22;25.70;96.70
44223;DHT22;29895;48.804;9.386;2022-08-01T17:47:48;25.70;96.70
44223;DHT22;29895;48.804;9.386;2022-08-01T17:50:13;25.80;96.60
44223;DHT22;29895;48.804;9.386;2022-08-01T17:52:39;25.80;96.60
44223;DHT22;29895;48.804;9.386;2022-08-01T17:55:05;25.70;96.70
44223;DHT22;29895;48.804;9.386;2022-08-01T17:57:30;25.70;96.80
44223;DHT22;29895;48.804;9.386;2022-08-01T17:59:56;25.70;96.80
44223;DHT22;29895;48.804;9.386;2022-08-01T18:02:23;25.70;96.90
44223;DHT22;29895;48.804;9.386;2022-08-01T18:04:48;25.70;96.90
44223;DHT22;29895;48.804;9.386;2022-08-01T18:07:18;25.60;96.90
44223;DHT22;29895;48.804;9.386;2022-08-01T18:09:43;25.50;97.10
44223;DHT22;29895;48.804;9.386;2022-08-01T18:12:10;25.40;97.30
44223;DHT22;29895;48.804;9.386;2022-08-01T18:14:36;25.30;97.50
44223;DHT22;29895;48.804;9.386;2022-08-01T18:17:02;25.30;97.80
44223;DHT22;29895;48.804;9.386;2022-08-01T18:19:27;25.20;97.90
44223;DHT22;29895;48.804;9.386;2022-08-01T18:21:53;25.20;97.90
44223;DHT22;29895;48.804;9.386;2022-08-01T18:24:19;25.20;98.10
44223;DHT22;29895;48.804;9.386;2022-08-01T18:26:48;25.20;97.90
44223;DHT22;29895;48.804;9.386;2022-08-01T18:29:16;25.10;97.90
44223;DHT22;29895;48.804;9.386;2022-08-01T18:31:41;25.10;97.80
44223;DHT22;29895;48.804;9.386;2022-08-01T18:34:07;25.10;98.10
44223;DHT22;29895;48.804;9.386;2022-08-01T18:36:32;25.10;98.30
44223;DHT22;29895;48.804;9.386;2022-08-01T18:38:58;25.00;98.40
44223;DHT22;29895;48.804;9.386;2022-08-01T18:41:24;24.90;98.50
44223;DHT22;29895;48.804;9.386;2022-08-01T18:43:49;24.70;98.90
44223;DHT22;29895;48.804;9.386;2022-08-01T18:46:16;24.60;99.10
44223;DHT22;29895;48.804;9.386;2022-08-01T18:48:41;24.50;99.30
44223;DHT22;29895;48.804;9.386;2022-08-01T18:51:07;24.40;99.50
44223;DHT22;29895;48.804;9.386;2022-08-01T18:53:33;24.30;99.70
44223;DHT22;29895;48.804;9.386;2022-08-01T18:55:59;24.20;99.90
44223;DHT22;29895;48.804;9.386;2022-08-01T18:58:25;24.10;99.90
44223;DHT22;29895;48.804;9.386;2022-08-01T19:00:50;24.00;99.90
44223;DHT22;29895;48.804;9.386;2022-08-01T19:03:16;24.00;99.90
44223;DHT22;29895;48.804;9.386;2022-08-01T19:05:45;23.90;99.90
44223;DHT22;29895;48.804;9.386;2022-08-01T19:08:10;23.90;99.90
44223;DHT22;29895;48.804;9.386;2022-08-01T19:10:37;23.90;99.90
44223;DHT22;29895;48.804;9.386;2022-08-01T19:13:04;23.80;99.90
44223;DHT22;29895;48.804;9.386;2022-08-01T19:15:30;23.70;99.90
44223;DHT22;29895;48.804;9.386;2022-08-01T19:17:55;23.70;99.90
44223;DHT22;29895;48.804;9.386;2022-08-01T19:20:21;23.60;99.90
44223;DHT22;29895;48.804;9.386;2022-08-01T19:22:47;23.60;99.90
44223;DHT22;29895;48.804;9.386;2022-08-01T19:25:13;23.50;99.90
44223;DHT22;29895;48.804;9.386;2022-08-01T19:27:41;23.50;99.90
44223;DHT22;29895;48.804;9.386;2022-08-01T19:30:09;23.40;99.90
44223;DHT22;29895;48.804;9.386;2022-08-01T19:32:35;23.40;99.90
44223;DHT22;29895;48.804;9.386;2022-08-01T19:35:08;23.30;99.90
44223;DHT22;29895;48.804;9.386;2022-08-01T19:37:36;23.30;99.90
44223;DHT22;29895;48.804;9.386;2022-08-01T19:40:05;23.20;99.90
44223;DHT22;29895;48.804;9.386;2022-08-01T19:42:31;23.20;99.90
44223;DHT22;29895;48.804;9.386;2022-08-01T19:44:56;23.10;99.90
44223;DHT22;29895;48.804;9.386;2022-08-01T19:47:23;23.10;99.90
44223;DHT22;29895;48.804;9.386;2022-08-01T19:49:50;23.00;99.90
44223;DHT22;29895;48.804;9.386;2022-08-01T19:52:16;23.00;99.90
44223;DHT22;29895;48.804;9.386;2022-08-01T19:54:43;22.90;99.90
44223;DHT22;29895;48.804;9.386;2022-08-01T19:57:11;22.90;99.90
44223;DHT22;29895;48.804;9.386;2022-08-01T19:59:37;22.90;99.90
44223;DHT22;29895;48.804;9.386;2022-08-01T20:02:03;22.90;99.90
44223;DHT22;29895;48.804;9.386;2022-08-01T20:04:28;22.80;99.90
44223;DHT22;29895;48.804;9.386;2022-08-01T20:06:54;22.80;99.90
44223;DHT22;29895;48.804;9.386;2022-08-01T20:09:21;22.80;99.90
44223;DHT22;29895;48.804;9.386;2022-08-01T20:11:48;22.80;99.90
44223;DHT22;29895;48.804;9.386;2022-08-01T20:14:18;22.90;99.90
44223;DHT22;29895;48.804;9.386;2022-08-01T20:16:44;22.90;99.90
44223;DHT22;29895;48.804;9.386;2022-08-01T20:19:10;23.00;99.90
44223;DHT22;29895;48.804;9.386;2022-08-01T20:21:35;22.90;99.90
44223;DHT22;29895;48.804;9.386;2022-08-01T20:24:02;22.70;99.90
